Terminal Aerodrome Forecast
Issued by NWS

Home | Current Version | Previous Version | Text Only | Print | Product List | Glossary On
Versions: 1 2 3 4 5 6 7 8 9 10 11 12 13 14 15 16 17 18 19 20 21 22 23
000
FTUS46 KEKA 180544
TAFCEC
TAF
KCEC 180544Z 1806/1906 03003KT P6SM SCT250
     FM180800 04004KT 6SM BR FEW006 SCT250
     FM182000 30005KT P6SM BKN200
     FM190300 14004KT P6SM FEW150 OVC200=

USA.gov is the U.S. government's official web portal to all federal, state and local government web resources and services.